createdAt,value
2022-11-07T00:02:02.509Z,51.00
2022-11-07T00:04:31.421Z,51.00
2022-11-07T00:06:58.466Z,51.00
2022-11-07T00:09:25.548Z,51.10
2022-11-07T00:11:52.458Z,51.00
2022-11-07T00:14:19.558Z,51.00
2022-11-07T00:16:47.810Z,51.00
2022-11-07T00:19:16.577Z,51.20
2022-11-07T00:21:45.047Z,51.10
2022-11-07T00:24:12.931Z,51.10
2022-11-07T00:26:39.724Z,51.10
2022-11-07T00:29:06.936Z,51.10
2022-11-07T00:31:33.685Z,51.10
2022-11-07T00:34:00.417Z,51.00
2022-11-07T00:36:28.551Z,50.80
2022-11-07T00:38:56.959Z,50.90
2022-11-07T00:41:26.898Z,50.80
2022-11-07T00:43:54.557Z,51.00
2022-11-07T00:46:21.370Z,50.90
2022-11-07T00:48:56.845Z,50.90
2022-11-07T00:51:27.630Z,50.90
2022-11-07T00:53:55.852Z,50.90
2022-11-07T00:56:24.608Z,50.80
2022-11-07T00:58:54.630Z,50.90
2022-11-07T01:01:48.220Z,50.90
2022-11-07T01:04:24.687Z,51.00
2022-11-07T01:06:56.034Z,51.20
2022-11-07T01:09:24.290Z,51.10
2022-11-07T01:11:51.212Z,51.20
2022-11-07T01:14:20.029Z,51.20
2022-11-07T01:16:46.786Z,51.10
2022-11-07T01:19:13.656Z,51.10
2022-11-07T01:21:41.677Z,51.10
2022-11-07T01:24:10.692Z,51.30
2022-11-07T01:26:39.736Z,51.30
2022-11-07T01:29:07.208Z,51.20
2022-11-07T01:34:24.328Z,51.50
2022-11-07T01:36:51.047Z,51.40
2022-11-07T01:39:17.921Z,51.40
2022-11-07T01:41:45.988Z,51.60
2022-11-07T01:44:51.883Z,51.60
2022-11-07T01:47:18.993Z,51.50
2022-11-07T01:49:45.972Z,51.50
2022-11-07T01:52:17.041Z,51.40
2022-11-07T01:54:48.734Z,51.60
2022-11-07T01:57:20.768Z,51.60
2022-11-07T01:59:48.272Z,51.60
2022-11-07T02:02:15.414Z,51.70
2022-11-07T02:04:42.822Z,51.60
2022-11-07T02:07:14.089Z,51.50
2022-11-07T02:09:41.955Z,51.60
2022-11-07T02:12:08.850Z,51.70
2022-11-07T02:14:37.074Z,51.70
2022-11-07T02:17:04.011Z,51.80
2022-11-07T02:19:35.790Z,51.80
2022-11-07T02:22:12.752Z,51.60
2022-11-07T02:24:44.228Z,51.70
2022-11-07T02:27:14.632Z,51.90
2022-11-07T02:29:44.951Z,51.60
2022-11-07T02:32:12.657Z,51.60
2022-11-07T02:34:39.779Z,51.60
2022-11-07T02:37:13.245Z,51.50
2022-11-07T02:39:41.520Z,51.60
2022-11-07T02:42:08.934Z,51.90
2022-11-07T02:44:35.825Z,51.90
2022-11-07T02:47:02.705Z,51.90
2022-11-07T02:49:29.459Z,51.70
2022-11-07T02:51:56.196Z,51.60
2022-11-07T02:54:22.920Z,51.60
2022-11-07T02:56:51.041Z,51.50
2022-11-07T02:59:18.696Z,51.40
2022-11-07T03:01:47.595Z,51.40
2022-11-07T03:04:14.417Z,51.50
2022-11-07T03:06:41.329Z,51.20
2022-11-07T03:09:08.099Z,51.20
2022-11-07T03:11:34.909Z,51.00
2022-11-07T03:14:02.998Z,50.80
2022-11-07T03:16:29.735Z,50.90
2022-11-07T03:18:56.425Z,50.70
2022-11-07T03:21:23.248Z,50.80
2022-11-07T03:23:49.972Z,50.70
2022-11-07T03:26:16.707Z,50.60
2022-11-07T03:28:43.436Z,51.40
2022-11-07T03:31:11.518Z,51.00
2022-11-07T03:33:38.316Z,51.20
2022-11-07T03:36:05.832Z,51.40
2022-11-07T03:38:32.646Z,51.30
2022-11-07T03:40:59.365Z,51.50
2022-11-07T03:43:26.097Z,51.40
2022-11-07T03:45:52.853Z,51.60
2022-11-07T03:48:20.931Z,51.70
2022-11-07T03:50:47.630Z,51.90
2022-11-07T03:53:15.094Z,51.90
2022-11-07T03:55:43.350Z,52.10
2022-11-07T03:58:10.103Z,52.40
2022-11-07T04:00:36.859Z,52.50
2022-11-07T04:03:03.685Z,52.50
2022-11-07T04:05:31.837Z,52.70
2022-11-07T04:07:58.585Z,52.50
2022-11-07T04:10:25.571Z,53.20
2022-11-07T04:12:52.384Z,52.90
2022-11-07T04:15:19.205Z,52.90
2022-11-07T04:17:46.183Z,53.00
2022-11-07T04:20:12.949Z,52.90
2022-11-07T04:22:41.028Z,53.10
2022-11-07T04:25:08.750Z,53.80
2022-11-07T04:27:35.630Z,53.00
2022-11-07T04:30:05.421Z,53.30
2022-11-07T04:32:32.130Z,53.00
2022-11-07T04:34:59.104Z,53.30
2022-11-07T04:37:25.851Z,53.70
2022-11-07T04:39:53.941Z,53.90
2022-11-07T04:42:20.662Z,53.90
2022-11-07T04:44:47.349Z,54.00
2022-11-07T04:47:14.150Z,53.40
2022-11-07T04:49:40.862Z,53.10
2022-11-07T04:52:07.600Z,53.30
2022-11-07T04:54:34.339Z,53.20
2022-11-07T04:57:02.420Z,53.70
2022-11-07T04:59:29.154Z,53.40
2022-11-07T05:01:56.046Z,53.40
2022-11-07T05:04:22.895Z,53.30
2022-11-07T05:06:49.800Z,53.70
2022-11-07T05:09:17.334Z,53.00
2022-11-07T05:11:44.095Z,52.90
2022-11-07T05:14:12.266Z,52.60
2022-11-07T05:16:40.200Z,53.20
2022-11-07T05:19:06.952Z,52.90
2022-11-07T05:21:33.702Z,52.90
2022-11-07T05:24:00.466Z,53.00
2022-11-07T05:26:27.242Z,52.90
2022-11-07T05:28:53.981Z,52.80
2022-11-07T05:31:22.024Z,53.00
2022-11-07T05:33:48.794Z,52.80
2022-11-07T05:36:20.111Z,52.50
2022-11-07T05:38:48.347Z,53.00
2022-11-07T05:41:17.088Z,52.80
2022-11-07T05:43:44.184Z,52.90
2022-11-07T05:46:11.401Z,53.40
2022-11-07T05:48:40.779Z,52.80
2022-11-07T05:51:07.956Z,52.70
2022-11-07T05:53:35.057Z,52.80
2022-11-07T05:56:01.842Z,52.90
2022-11-07T05:58:28.616Z,52.80
2022-11-07T06:00:59.963Z,52.70
2022-11-07T06:03:27.057Z,52.90
2022-11-07T06:05:55.137Z,52.90
2022-11-07T06:08:21.961Z,53.20
2022-11-07T06:10:48.704Z,53.20
2022-11-07T06:13:16.989Z,53.00
2022-11-07T06:15:45.032Z,53.20
2022-11-07T06:18:14.418Z,53.10
2022-11-07T06:20:41.514Z,53.30
2022-11-07T06:23:10.505Z,53.50
2022-11-07T06:25:37.555Z,53.40
2022-11-07T06:28:06.506Z,53.20
2022-11-07T06:30:33.592Z,53.40
2022-11-07T06:33:03.998Z,53.50
2022-11-07T06:39:02.898Z,53.40
2022-11-07T06:41:29.769Z,53.80
2022-11-07T06:43:56.701Z,53.80
2022-11-07T06:46:23.680Z,54.00
2022-11-07T06:48:50.432Z,54.00
2022-11-07T06:51:24.487Z,53.50
2022-11-07T06:53:51.274Z,53.20
2022-11-07T06:56:22.175Z,53.20
2022-11-07T06:58:48.930Z,53.60
2022-11-07T07:01:23.634Z,53.50
2022-11-07T07:03:50.751Z,54.20
2022-11-07T07:06:17.989Z,53.40
2022-11-07T07:08:45.959Z,53.40
2022-11-07T07:11:31.892Z,53.00
2022-11-07T07:14:02.459Z,53.50
2022-11-07T07:16:32.071Z,53.70
2022-11-07T07:19:07.994Z,53.70
2022-11-07T07:24:20.509Z,53.90
2022-11-07T07:26:57.479Z,53.70
2022-11-07T07:29:29.967Z,53.70
2022-11-07T07:31:56.725Z,53.90
2022-11-07T07:34:23.484Z,54.20
2022-11-07T07:36:52.862Z,53.80
2022-11-07T07:39:19.660Z,53.70
2022-11-07T07:41:46.548Z,53.80
2022-11-07T07:44:13.297Z,53.80
2022-11-07T07:46:41.445Z,53.70
2022-11-07T07:49:09.285Z,54.00
2022-11-07T07:51:36.070Z,53.80
2022-11-07T07:54:02.935Z,53.90
2022-11-07T07:56:29.740Z,53.80
2022-11-07T07:58:56.627Z,53.80
2022-11-07T08:01:23.612Z,54.60
2022-11-07T08:04:01.475Z,54.00
2022-11-07T08:06:29.409Z,54.00
2022-11-07T08:08:56.189Z,54.00
2022-11-07T08:11:23.036Z,54.30
2022-11-07T08:13:49.812Z,54.30
2022-11-07T08:16:16.623Z,54.20
2022-11-07T08:18:45.723Z,55.30
2022-11-07T08:21:13.915Z,54.30
2022-11-07T08:23:40.658Z,54.50
2022-11-07T08:26:09.553Z,54.80
2022-11-07T08:28:36.392Z,54.70
2022-11-07T08:31:05.522Z,54.90
2022-11-07T08:33:32.605Z,55.00
2022-11-07T08:36:00.953Z,55.00
2022-11-07T08:38:30.334Z,54.70
2022-11-07T08:40:58.061Z,54.60
2022-11-07T08:43:25.032Z,55.10
2022-11-07T08:45:53.619Z,54.80
2022-11-07T08:48:21.257Z,54.70
2022-11-07T08:50:51.971Z,54.80
2022-11-07T08:53:18.941Z,54.80
2022-11-07T08:55:47.127Z,54.90
2022-11-07T08:58:13.903Z,55.00
2022-11-07T09:01:02.574Z,55.00
2022-11-07T09:03:48.834Z,55.50
2022-11-07T09:06:16.814Z,55.40
2022-11-07T09:08:43.745Z,55.70
2022-11-07T09:11:11.901Z,55.60
2022-11-07T09:13:39.359Z,55.40
2022-11-07T09:16:06.524Z,55.20
2022-11-07T09:18:33.792Z,55.40
2022-11-07T09:21:00.787Z,55.30
2022-11-07T09:23:27.947Z,55.60
2022-11-07T09:25:54.880Z,55.40
2022-11-07T09:28:23.075Z,55.30
2022-11-07T09:30:53.233Z,55.20
2022-11-07T09:33:20.098Z,55.10
2022-11-07T09:35:46.971Z,54.90
2022-11-07T09:38:14.487Z,55.00
2022-11-07T09:40:47.139Z,55.10
2022-11-07T09:43:28.433Z,54.90
2022-11-07T09:46:03.157Z,54.90
2022-11-07T09:48:38.780Z,54.80
2022-11-07T09:51:10.549Z,54.80
2022-11-07T09:53:42.305Z,55.00
2022-11-07T09:56:12.513Z,54.80
2022-11-07T09:58:43.050Z,54.90
2022-11-07T10:01:13.448Z,54.80
2022-11-07T10:03:49.138Z,54.70
2022-11-07T10:06:27.270Z,54.50
2022-11-07T10:09:07.145Z,54.50
2022-11-07T10:11:36.582Z,54.50
2022-11-07T10:14:16.718Z,54.30
2022-11-07T10:16:57.304Z,54.30
2022-11-07T10:19:49.699Z,54.10
2022-11-07T10:22:41.827Z,53.90
2022-11-07T10:25:19.916Z,53.90
2022-11-07T10:27:53.802Z,53.90
2022-11-07T10:30:22.181Z,54.00
2022-11-07T10:32:58.070Z,54.10
2022-11-07T10:35:29.970Z,53.90
2022-11-07T10:37:58.694Z,54.20
2022-11-07T10:40:33.704Z,53.60
2022-11-07T10:43:03.182Z,53.50
2022-11-07T10:45:32.271Z,53.30
2022-11-07T10:48:00.982Z,53.30
2022-11-07T10:50:27.862Z,53.00
2022-11-07T10:52:56.758Z,53.00
2022-11-07T10:55:24.575Z,52.80
2022-11-07T10:57:56.188Z,52.80
2022-11-07T11:00:26.089Z,52.70
2022-11-07T11:02:55.499Z,52.50
2022-11-07T11:05:28.191Z,52.50
2022-11-07T11:07:56.532Z,52.50
2022-11-07T11:10:25.345Z,52.60
2022-11-07T11:12:52.138Z,52.70
2022-11-07T11:15:20.926Z,52.60
2022-11-07T11:17:56.250Z,52.50
2022-11-07T11:22:09.739Z,52.60
2022-11-07T11:23:24.074Z,52.50
2022-11-07T11:25:58.477Z,52.60
2022-11-07T11:28:31.076Z,52.50
2022-11-07T11:31:02.029Z,52.40
2022-11-07T11:33:35.282Z,52.40
2022-11-07T11:36:10.234Z,52.40
2022-11-07T11:38:37.379Z,52.40
2022-11-07T11:41:14.849Z,52.30
2022-11-07T11:43:46.404Z,52.20
2022-11-07T11:46:20.184Z,52.00
2022-11-07T11:48:49.668Z,52.00
2022-11-07T11:51:23.482Z,51.80
2022-11-07T11:53:50.472Z,51.80
2022-11-07T11:56:26.417Z,51.70
2022-11-07T11:59:12.641Z,51.50
2022-11-07T12:01:47.311Z,51.60
2022-11-07T12:04:36.090Z,51.60
2022-11-07T12:07:19.779Z,51.30
2022-11-07T12:09:55.756Z,51.10
2022-11-07T12:15:51.345Z,51.10
2022-11-07T12:18:30.912Z,51.10
2022-11-07T12:21:08.003Z,51.00
2022-11-07T12:23:49.186Z,51.00
2022-11-07T12:26:24.113Z,51.70
2022-11-07T12:29:04.466Z,50.90
2022-11-07T12:31:42.174Z,50.90
2022-11-07T12:34:19.634Z,51.00
2022-11-07T12:37:15.767Z,50.80
2022-11-07T12:40:01.097Z,51.10
2022-11-07T12:42:40.807Z,51.10
2022-11-07T12:45:19.263Z,51.00
2022-11-07T12:48:12.826Z,51.20
2022-11-07T12:50:46.775Z,51.10
2022-11-07T12:53:26.771Z,51.20
2022-11-07T12:55:59.268Z,51.30
2022-11-07T12:58:39.363Z,51.30
2022-11-07T13:01:40.242Z,51.30
2022-11-07T13:04:12.399Z,51.20
2022-11-07T13:06:43.932Z,51.30
2022-11-07T13:09:27.872Z,51.20
2022-11-07T13:12:05.244Z,51.30
2022-11-07T13:14:33.811Z,51.40
2022-11-07T13:17:12.796Z,51.40
2022-11-07T13:19:41.396Z,51.30
2022-11-07T13:22:20.944Z,51.40
2022-11-07T13:24:53.929Z,51.20
2022-11-07T13:27:25.414Z,51.30
2022-11-07T13:29:52.333Z,51.40
2022-11-07T13:32:19.378Z,51.20
2022-11-07T13:34:49.617Z,51.20
2022-11-07T13:37:20.840Z,51.30
2022-11-07T13:39:51.462Z,51.20
2022-11-07T13:42:19.160Z,51.10
2022-11-07T13:44:54.031Z,51.20
2022-11-07T13:47:29.683Z,51.20
2022-11-07T13:50:02.510Z,51.10
2022-11-07T13:52:40.300Z,51.20
2022-11-07T13:55:13.663Z,51.20
2022-11-07T13:57:42.995Z,51.20
2022-11-07T14:00:23.349Z,51.20
2022-11-07T14:02:54.577Z,51.20
2022-11-07T14:05:23.459Z,51.20
2022-11-07T14:07:53.599Z,51.20
2022-11-07T14:10:31.296Z,51.10
2022-11-07T14:13:04.730Z,51.00
2022-11-07T14:15:33.930Z,51.00
2022-11-07T14:18:00.982Z,51.10
2022-11-07T14:20:27.752Z,51.30
2022-11-07T14:22:56.098Z,51.20
2022-11-07T14:25:26.947Z,51.20
2022-11-07T14:27:53.878Z,51.30
2022-11-07T14:30:23.672Z,51.30
2022-11-07T14:32:53.899Z,51.30
2022-11-07T14:35:23.375Z,51.40
2022-11-07T14:37:50.505Z,51.40
2022-11-07T14:40:18.052Z,51.50
2022-11-07T14:42:45.986Z,51.50
2022-11-07T14:45:23.794Z,51.60
2022-11-07T14:48:05.457Z,51.60
2022-11-07T14:50:33.132Z,51.70
2022-11-07T14:53:04.640Z,51.70
2022-11-07T14:55:33.535Z,51.70
2022-11-07T14:58:02.582Z,51.60
2022-11-07T15:00:29.684Z,51.70
2022-11-07T15:02:58.089Z,51.80
2022-11-07T15:05:28.798Z,51.80
2022-11-07T15:07:56.962Z,51.70
2022-11-07T15:10:30.546Z,51.80
2022-11-07T15:12:59.698Z,51.90
2022-11-07T15:15:30.246Z,51.90
2022-11-07T15:17:59.243Z,52.00
2022-11-07T15:20:36.955Z,52.10
2022-11-07T15:23:05.929Z,52.20
2022-11-07T15:25:35.109Z,52.30
2022-11-07T15:28:19.142Z,52.40
2022-11-07T15:30:46.721Z,52.50
2022-11-07T15:33:14.653Z,52.60
2022-11-07T15:35:44.996Z,52.60
2022-11-07T15:38:17.680Z,52.70
2022-11-07T15:40:44.747Z,52.60
2022-11-07T15:43:11.675Z,52.50
2022-11-07T15:45:38.935Z,52.60
2022-11-07T15:48:06.900Z,52.50
2022-11-07T15:50:34.583Z,52.50
2022-11-07T15:53:02.730Z,52.60
2022-11-07T15:55:29.592Z,52.70
2022-11-07T15:57:56.506Z,52.80
2022-11-07T16:00:25.188Z,53.00
2022-11-07T16:02:52.384Z,52.90
2022-11-07T16:05:19.884Z,52.90
2022-11-07T16:07:46.833Z,52.80
2022-11-07T16:10:22.155Z,52.80
2022-11-07T16:12:49.299Z,52.80
2022-11-07T16:15:17.815Z,52.80
2022-11-07T16:17:45.119Z,52.80
2022-11-07T16:20:14.700Z,52.80
2022-11-07T16:22:41.587Z,52.70
2022-11-07T16:25:17.279Z,52.70
2022-11-07T16:27:51.286Z,52.80
2022-11-07T16:30:18.845Z,53.00
2022-11-07T16:32:45.735Z,52.90
2022-11-07T16:35:12.814Z,53.00
2022-11-07T16:37:39.635Z,53.00
2022-11-07T16:40:10.946Z,53.00
2022-11-07T16:42:37.717Z,52.90
2022-11-07T16:45:06.610Z,52.90
2022-11-07T16:47:38.078Z,52.90
2022-11-07T16:50:06.193Z,53.00
2022-11-07T16:52:32.970Z,52.90
2022-11-07T16:54:59.710Z,53.00
2022-11-07T16:57:26.665Z,53.00
2022-11-07T16:59:53.372Z,53.00
2022-11-07T17:02:23.430Z,53.20
2022-11-07T17:04:52.054Z,53.10
2022-11-07T17:07:20.909Z,53.10
2022-11-07T17:09:47.811Z,53.00
2022-11-07T17:12:16.622Z,53.40
2022-11-07T17:14:43.544Z,53.00
2022-11-07T17:17:12.188Z,53.10
2022-11-07T17:19:40.444Z,53.10
2022-11-07T17:22:08.654Z,53.20
2022-11-07T17:24:35.385Z,53.20
2022-11-07T17:27:02.373Z,53.30
2022-11-07T17:29:29.171Z,53.20
2022-11-07T17:31:55.907Z,53.20
2022-11-07T17:34:22.636Z,53.30
2022-11-07T17:36:51.364Z,53.40
2022-11-07T17:39:19.530Z,53.40
2022-11-07T17:41:48.389Z,53.40
2022-11-07T17:44:15.910Z,53.40
2022-11-07T17:46:44.929Z,53.40
2022-11-07T17:49:14.381Z,53.40
2022-11-07T17:51:41.321Z,53.40
2022-11-07T17:54:11.243Z,53.40
2022-11-07T17:56:37.984Z,53.40
2022-11-07T17:59:06.288Z,53.50
2022-11-07T18:01:35.148Z,53.40
2022-11-07T18:04:03.217Z,53.40
2022-11-07T18:06:30.060Z,53.60
2022-11-07T18:08:58.157Z,53.50
2022-11-07T18:11:29.269Z,53.40
2022-11-07T18:13:57.500Z,54.10
2022-11-07T18:16:26.428Z,53.60
2022-11-07T18:18:53.353Z,53.50
2022-11-07T18:21:20.430Z,53.60
2022-11-07T18:23:47.191Z,53.60
2022-11-07T18:26:15.910Z,53.60
2022-11-07T18:28:44.548Z,53.70
2022-11-07T18:31:13.649Z,53.60
2022-11-07T18:33:40.820Z,53.60
2022-11-07T18:36:09.728Z,53.80
2022-11-07T18:38:36.836Z,53.70
2022-11-07T18:41:05.950Z,53.70
2022-11-07T18:43:33.422Z,53.70
2022-11-07T18:46:01.831Z,53.70
2022-11-07T18:48:29.652Z,53.70
2022-11-07T18:50:56.383Z,53.70
2022-11-07T18:53:23.236Z,53.90
2022-11-07T18:55:56.542Z,53.70
2022-11-07T18:58:23.356Z,53.70
2022-11-07T19:00:50.118Z,53.70
2022-11-07T19:03:18.483Z,53.70
2022-11-07T19:05:45.391Z,53.70
2022-11-07T19:08:12.094Z,53.60
2022-11-07T19:10:38.961Z,53.60
2022-11-07T19:13:08.271Z,53.80
2022-11-07T19:15:38.445Z,53.80
2022-11-07T19:18:05.317Z,53.80
2022-11-07T19:20:33.517Z,53.70
2022-11-07T19:23:00.261Z,53.80
2022-11-07T19:25:27.067Z,53.70
2022-11-07T19:27:53.801Z,53.80
2022-11-07T19:30:20.533Z,53.70
2022-11-07T19:32:47.242Z,53.70
2022-11-07T19:35:14.257Z,53.70
2022-11-07T19:37:42.329Z,53.70
2022-11-07T19:40:10.393Z,53.70
2022-11-07T19:42:37.261Z,53.70
2022-11-07T19:45:04.680Z,53.80
2022-11-07T19:47:31.546Z,53.70
2022-11-07T19:49:58.413Z,53.70
2022-11-07T19:52:25.384Z,53.70
2022-11-07T19:54:53.478Z,53.60
2022-11-07T19:57:20.249Z,53.60
2022-11-07T19:59:47.109Z,53.80
2022-11-07T20:05:01.258Z,53.80
2022-11-07T20:07:28.051Z,53.60
2022-11-07T20:09:56.095Z,53.70
2022-11-07T20:12:22.825Z,53.90
2022-11-07T20:14:49.648Z,54.00
2022-11-07T20:17:16.433Z,53.90
2022-11-07T20:19:43.169Z,53.90
2022-11-07T20:22:09.918Z,53.80
2022-11-07T20:24:36.698Z,53.60
2022-11-07T20:27:05.210Z,53.70
2022-11-07T20:29:31.946Z,53.70
2022-11-07T20:31:58.679Z,53.60
2022-11-07T20:34:25.422Z,53.70
2022-11-07T20:36:53.980Z,53.70
2022-11-07T20:39:20.902Z,53.80
2022-11-07T20:41:47.758Z,53.70
2022-11-07T20:44:16.160Z,53.80
2022-11-07T20:46:45.273Z,54.60
2022-11-07T20:49:14.534Z,53.80
2022-11-07T20:51:41.367Z,54.00
2022-11-07T20:54:10.791Z,53.90
2022-11-07T20:56:37.608Z,54.00
2022-11-07T20:59:04.650Z,53.90
2022-11-07T21:01:33.819Z,54.00
2022-11-07T21:04:00.638Z,54.20
2022-11-07T21:06:27.350Z,54.20
2022-11-07T21:08:54.064Z,54.20
2022-11-07T21:11:20.775Z,54.10
2022-11-07T21:13:52.792Z,54.20
2022-11-07T21:16:21.168Z,54.10
2022-11-07T21:18:49.466Z,54.20
2022-11-07T21:21:18.470Z,54.10
2022-11-07T21:23:45.691Z,54.20
2022-11-07T21:26:15.319Z,54.30
2022-11-07T21:28:42.109Z,54.20
2022-11-07T21:31:11.827Z,54.40
2022-11-07T21:33:38.838Z,54.40
2022-11-07T21:36:09.990Z,54.40
2022-11-07T21:38:36.779Z,54.60
2022-11-07T21:41:04.882Z,54.40
2022-11-07T21:43:31.744Z,54.40
2022-11-07T21:46:07.890Z,54.70
2022-11-07T21:48:35.423Z,54.80
2022-11-07T21:51:05.544Z,54.60
2022-11-07T21:53:37.578Z,54.80
2022-11-07T21:56:05.149Z,54.80
2022-11-07T21:58:32.042Z,55.00
2022-11-07T22:01:01.632Z,54.70
2022-11-07T22:03:58.851Z,55.20
2022-11-07T22:06:15.463Z,55.50
2022-11-07T22:08:43.565Z,54.80
2022-11-07T22:11:10.282Z,54.80
2022-11-07T22:13:37.076Z,54.80
2022-11-07T22:16:06.553Z,54.60
2022-11-07T22:18:33.960Z,54.50
2022-11-07T22:21:01.550Z,54.50
2022-11-07T22:23:31.289Z,54.50
2022-11-07T22:26:04.302Z,54.40
2022-11-07T22:28:31.136Z,54.40
2022-11-07T22:30:57.925Z,54.30
2022-11-07T22:33:24.702Z,54.40
2022-11-07T22:35:51.726Z,54.40
2022-11-07T22:38:18.487Z,54.30
2022-11-07T22:40:45.881Z,54.30
2022-11-07T22:43:14.142Z,54.00
2022-11-07T22:45:41.658Z,54.00
2022-11-07T22:48:08.998Z,54.10
2022-11-07T22:50:36.435Z,54.00
2022-11-07T22:53:03.437Z,54.10
2022-11-07T22:55:35.137Z,54.10
2022-11-07T22:58:01.925Z,54.20
2022-11-07T23:00:30.045Z,54.00
2022-11-07T23:02:56.956Z,54.00
2022-11-07T23:05:23.803Z,54.10
2022-11-07T23:07:50.998Z,54.10
2022-11-07T23:10:18.225Z,53.90
2022-11-07T23:12:45.065Z,54.00
2022-11-07T23:15:11.815Z,54.20
2022-11-07T23:17:40.651Z,54.10
2022-11-07T23:20:09.364Z,54.20
2022-11-07T23:22:36.155Z,54.30
2022-11-07T23:25:02.962Z,54.60
2022-11-07T23:27:29.721Z,54.80
2022-11-07T23:29:56.452Z,54.80
2022-11-07T23:32:23.164Z,54.80
2022-11-07T23:34:51.322Z,54.50
2022-11-07T23:37:18.024Z,54.80
2022-11-07T23:39:44.745Z,54.60
2022-11-07T23:42:12.134Z,54.70
2022-11-07T23:44:38.877Z,54.70
2022-11-07T23:47:05.635Z,54.60
2022-11-07T23:49:32.347Z,54.90
2022-11-07T23:52:00.404Z,55.00
2022-11-07T23:54:27.139Z,55.10
2022-11-07T23:56:54.173Z,55.10
2022-11-07T23:59:20.962Z,54.80
